createdAt,value
2023-06-10T00:00:08.408Z,113033.88
2023-06-10T00:02:42.419Z,113033.88
2023-06-10T00:05:11.479Z,113033.88
2023-06-10T00:07:42.571Z,112773.13
2023-06-10T00:10:12.424Z,112773.13
2023-06-10T00:12:39.958Z,112773.13
2023-06-10T00:15:08.453Z,112773.13
2023-06-10T00:17:39.920Z,112773.13
2023-06-10T00:20:16.947Z,112773.13
2023-06-10T00:22:47.020Z,112773.13
2023-06-10T00:25:14.456Z,112773.13
2023-06-10T00:27:43.942Z,112773.13
2023-06-10T00:30:11.938Z,112773.13
2023-06-10T00:32:39.241Z,112773.13
2023-06-10T00:35:07.949Z,112773.13
2023-06-10T00:37:38.442Z,112773.13
2023-06-10T00:40:06.259Z,112773.13
2023-06-10T00:42:33.665Z,112773.13
2023-06-10T00:45:00.988Z,112773.13
2023-06-10T00:47:29.511Z,112773.13
2023-06-10T00:49:56.939Z,112773.13
2023-06-10T00:52:31.415Z,112773.13
2023-06-10T00:55:00.399Z,112773.13
2023-06-10T00:57:28.252Z,112773.13
2023-06-10T00:59:55.609Z,112512.38
2023-06-10T01:02:23.173Z,112512.38
2023-06-10T01:04:50.711Z,112512.38
2023-06-10T01:07:27.270Z,112512.38
2023-06-10T01:10:13.527Z,112773.13
2023-06-10T01:13:00.419Z,112773.13
2023-06-10T01:15:30.665Z,112773.13
2023-06-10T01:18:10.625Z,112773.13
2023-06-10T01:20:41.347Z,112773.13
2023-06-10T01:23:12.524Z,112773.13
2023-06-10T01:26:06.955Z,112773.13
2023-06-10T01:28:37.229Z,112773.13
2023-06-10T01:31:25.033Z,112512.38
2023-06-10T01:33:56.804Z,112512.38
2023-06-10T01:36:32.351Z,112512.38
2023-06-10T01:39:03.054Z,112512.38
2023-06-10T01:41:30.745Z,112512.38
2023-06-10T01:43:58.157Z,112251.69
2023-06-10T01:46:25.407Z,112251.69
2023-06-10T01:48:52.652Z,112251.69
2023-06-10T01:51:22.366Z,112251.69
2023-06-10T01:53:49.663Z,112251.69
2023-06-10T01:56:20.138Z,112251.69
2023-06-10T01:58:47.952Z,112251.69
2023-06-10T02:01:17.986Z,112251.69
2023-06-10T02:03:45.388Z,112251.69
2023-06-10T02:06:12.569Z,112251.69
2023-06-10T02:08:39.816Z,111990.97
2023-06-10T02:11:08.365Z,112251.69
2023-06-10T02:13:35.989Z,112251.69
2023-06-10T02:16:03.288Z,111990.97
2023-06-10T02:18:30.553Z,111990.97
2023-06-10T02:21:00.391Z,111990.97
2023-06-10T02:23:27.499Z,111990.97
2023-06-10T02:25:54.809Z,111990.97
2023-06-10T02:28:22.248Z,111990.97
2023-06-10T02:30:49.850Z,111990.97
2023-06-10T02:33:18.660Z,111990.97
2023-06-10T02:35:46.223Z,111990.97
2023-06-10T02:38:13.779Z,111990.97
2023-06-10T02:40:40.944Z,111990.97
2023-06-10T02:43:08.518Z,111730.28
2023-06-10T02:45:36.847Z,111990.97
2023-06-10T02:48:05.273Z,111990.97
2023-06-10T02:50:40.737Z,111990.97
2023-06-10T02:53:18.858Z,111990.97
2023-06-10T02:55:56.496Z,111990.97
2023-06-10T02:58:23.934Z,111990.97
2023-06-10T03:00:51.558Z,111990.97
2023-06-10T03:03:18.826Z,111990.97
2023-06-10T03:05:57.665Z,111990.97
2023-06-10T03:08:27.886Z,111990.97
2023-06-10T03:10:56.322Z,111990.97
2023-06-10T03:13:24.867Z,111990.97
2023-06-10T03:15:57.789Z,111990.97
2023-06-10T03:18:27.722Z,111990.97
2023-06-10T03:20:58.660Z,112251.69
2023-06-10T03:23:28.329Z,112251.69
2023-06-10T03:25:58.928Z,111990.97
2023-06-10T03:28:26.494Z,111990.97
2023-06-10T03:30:56.507Z,111990.97
2023-06-10T03:33:25.844Z,111990.97
2023-06-10T03:35:56.463Z,111990.97
2023-06-10T03:38:25.431Z,111990.97
2023-06-10T03:40:53.453Z,111990.97
2023-06-10T03:43:23.367Z,111990.97
2023-06-10T03:45:54.671Z,111990.97
2023-06-10T03:48:22.364Z,111990.97
2023-06-10T03:50:53.247Z,111990.97
2023-06-10T03:53:24.004Z,111990.97
2023-06-10T03:55:54.436Z,111990.97
2023-06-10T03:58:24.535Z,111990.97
2023-06-10T04:00:53.756Z,112251.69
2023-06-10T04:03:32.842Z,112251.69
2023-06-10T04:06:01.186Z,111990.97
2023-06-10T04:08:29.233Z,111990.97
2023-06-10T04:10:57.170Z,111990.97
2023-06-10T04:13:28.721Z,111990.97
2023-06-10T04:15:59.213Z,111990.97
2023-06-10T04:18:27.115Z,111990.97
2023-06-10T04:20:58.191Z,111730.28
2023-06-10T04:23:27.874Z,111469.63
2023-06-10T04:25:55.401Z,111209.00
2023-06-10T04:28:26.199Z,111209.00
2023-06-10T04:30:54.048Z,110948.38
2023-06-10T04:33:22.279Z,110687.78
2023-06-10T04:35:49.650Z,110687.78
2023-06-10T04:38:18.258Z,110687.78
2023-06-10T04:40:46.145Z,110687.78
2023-06-10T04:43:15.566Z,110687.78
2023-06-10T04:45:46.826Z,110427.19
2023-06-10T04:48:19.227Z,110687.78
2023-06-10T04:50:48.743Z,110687.78
2023-06-10T04:53:19.395Z,110687.78
2023-06-10T04:55:49.199Z,110687.78
2023-06-10T04:58:18.793Z,110687.78
2023-06-10T05:00:46.231Z,110948.38
2023-06-10T05:03:13.625Z,110948.38
2023-06-10T05:05:41.134Z,110948.38
2023-06-10T05:08:11.159Z,111209.00
2023-06-10T05:10:43.456Z,111209.00
2023-06-10T05:13:10.823Z,111209.00
2023-06-10T05:15:38.405Z,111209.00
2023-06-10T05:18:05.990Z,111209.00
2023-06-10T05:20:33.247Z,111209.00
2023-06-10T05:23:02.684Z,111209.00
2023-06-10T05:25:33.938Z,111209.00
2023-06-10T05:28:01.147Z,111209.00
2023-06-10T05:30:33.200Z,111209.00
2023-06-10T05:33:05.101Z,111209.00
2023-06-10T05:35:34.652Z,111469.63
2023-06-10T05:38:04.290Z,111469.63
2023-06-10T05:40:31.616Z,111469.63
2023-06-10T05:43:01.379Z,111469.63
2023-06-10T05:45:31.208Z,111469.63
2023-06-10T05:47:58.500Z,111469.63
2023-06-10T05:50:26.086Z,111209.00
2023-06-10T05:52:54.823Z,111209.00
2023-06-10T05:55:22.525Z,111209.00
2023-06-10T05:57:59.708Z,111209.00
2023-06-10T06:00:29.385Z,111209.00
2023-06-10T06:03:00.083Z,111209.00
2023-06-10T06:05:27.535Z,111209.00
2023-06-10T06:07:55.428Z,110948.38
2023-06-10T06:10:25.146Z,110948.38
2023-06-10T06:12:55.851Z,111209.00
2023-06-10T06:15:26.047Z,110948.38
2023-06-10T06:17:53.797Z,111209.00
2023-06-10T06:20:21.768Z,111209.00
2023-06-10T06:22:51.415Z,111209.00
2023-06-10T06:25:18.832Z,111469.63
2023-06-10T06:27:46.470Z,112251.69
2023-06-10T06:30:14.429Z,112773.13
2023-06-10T06:32:41.937Z,112512.38
2023-06-10T06:35:09.867Z,112512.38
2023-06-10T06:37:39.903Z,113033.88
2023-06-10T06:40:20.517Z,113033.88
2023-06-10T06:42:48.026Z,113033.88
2023-06-10T06:45:38.414Z,113033.88
2023-06-10T06:48:07.005Z,113033.88
2023-06-10T06:50:36.734Z,113035.94
2023-06-10T06:53:04.659Z,113035.94
2023-06-10T06:55:32.247Z,113035.94
2023-06-10T06:58:04.891Z,113035.94
2023-06-10T07:00:32.975Z,113035.94
2023-06-10T07:03:03.331Z,113035.94
2023-06-10T07:05:33.005Z,113035.94
2023-06-10T07:08:00.423Z,113035.94
2023-06-10T07:10:28.106Z,113035.94
2023-06-10T07:12:58.060Z,113035.94
2023-06-10T07:15:25.581Z,113035.94
2023-06-10T07:17:53.522Z,113035.94
2023-06-10T07:20:21.062Z,113035.94
2023-06-10T07:22:48.484Z,113035.94
2023-06-10T07:25:16.803Z,113035.94
2023-06-10T07:27:49.008Z,113035.94
2023-06-10T07:30:18.849Z,113035.94
2023-06-10T07:32:46.352Z,113035.94
2023-06-10T07:35:15.034Z,113035.94
2023-06-10T07:37:42.446Z,113035.94
2023-06-10T07:40:14.474Z,113035.94
2023-06-10T07:42:45.507Z,113035.94
2023-06-10T07:45:13.029Z,113035.94
2023-06-10T07:47:40.479Z,113035.94
2023-06-10T07:50:08.343Z,113035.94
2023-06-10T07:52:35.564Z,113035.94
2023-06-10T07:55:02.880Z,113035.94
2023-06-10T07:57:32.729Z,113035.94
2023-06-10T08:00:01.298Z,113035.94
2023-06-10T08:02:28.929Z,113035.94
2023-06-10T08:04:56.393Z,113035.94
2023-06-10T08:07:23.916Z,113035.94
2023-06-10T08:09:53.369Z,113035.94
2023-06-10T08:12:23.282Z,113035.94
2023-06-10T08:14:50.608Z,113035.94
2023-06-10T08:17:18.024Z,113035.94
2023-06-10T08:19:47.862Z,113035.94
2023-06-10T08:22:15.877Z,113035.94
2023-06-10T08:24:49.113Z,113035.94
2023-06-10T08:27:17.108Z,113035.94
2023-06-10T08:29:44.829Z,113035.94
2023-06-10T08:32:12.300Z,113035.94
2023-06-10T08:34:40.291Z,113035.94
2023-06-10T08:37:07.940Z,113035.94
2023-06-10T08:39:35.159Z,113035.94
2023-06-10T08:42:23.317Z,113035.94
2023-06-10T08:44:56.064Z,113035.94
2023-06-10T08:47:28.225Z,113035.94
2023-06-10T08:49:57.837Z,113035.94
2023-06-10T08:52:28.692Z,113035.94
2023-06-10T08:55:11.702Z,113035.94
2023-06-10T08:57:39.625Z,113035.94
2023-06-10T09:00:07.941Z,113035.94
2023-06-10T09:02:36.573Z,113035.94
2023-06-10T09:05:04.270Z,113035.94
2023-06-10T09:07:37.304Z,113035.94
2023-06-10T09:10:08.532Z,113035.94
2023-06-10T09:12:36.782Z,113035.94
2023-06-10T09:15:04.344Z,113035.94
2023-06-10T09:17:34.392Z,113035.94
2023-06-10T09:20:03.839Z,113035.94
2023-06-10T09:22:31.090Z,113035.94
2023-06-10T09:25:11.958Z,113035.94
2023-06-10T09:27:55.310Z,113035.94
2023-06-10T09:30:27.537Z,113035.94
2023-06-10T09:32:58.819Z,113035.94
2023-06-10T09:35:27.836Z,113035.94
2023-06-10T09:37:58.381Z,113035.94
2023-06-10T09:40:26.377Z,113035.94
2023-06-10T09:43:02.251Z,113035.94
2023-06-10T09:45:33.513Z,113035.94
2023-06-10T09:48:03.192Z,113035.94
2023-06-10T09:50:34.354Z,113035.94
2023-06-10T09:53:03.634Z,113035.94
2023-06-10T09:55:37.433Z,113035.94
2023-06-10T09:58:05.515Z,113035.94
2023-06-10T10:00:34.002Z,113035.94
2023-06-10T10:03:04.762Z,113035.94
2023-06-10T10:05:32.263Z,113035.94
2023-06-10T10:08:00.957Z,113035.94
2023-06-10T10:10:28.277Z,113035.94
2023-06-10T10:12:59.078Z,113035.94
2023-06-10T10:15:33.051Z,113035.94
2023-06-10T10:18:11.921Z,113035.94
2023-06-10T10:20:56.201Z,113035.94
2023-06-10T10:23:33.001Z,113035.94
2023-06-10T10:26:03.371Z,113035.94
2023-06-10T10:28:45.854Z,113035.94
2023-06-10T10:31:19.981Z,113035.94
2023-06-10T10:34:03.848Z,113035.94
2023-06-10T10:36:33.950Z,113035.94
2023-06-10T10:39:04.251Z,113035.94
2023-06-10T10:41:33.712Z,113035.94
2023-06-10T10:44:02.216Z,113035.94
2023-06-10T10:46:31.429Z,113035.94
2023-06-10T10:48:59.800Z,113035.94
2023-06-10T10:51:27.353Z,113035.94
2023-06-10T10:54:15.120Z,113035.94
2023-06-10T10:57:27.992Z,113035.94
2023-06-10T10:59:57.164Z,113035.94
2023-06-10T11:02:38.257Z,113035.94
2023-06-10T11:05:07.260Z,113035.94
2023-06-10T11:07:37.480Z,113035.94
2023-06-10T11:10:12.522Z,113035.94
2023-06-10T11:12:54.922Z,113035.94
2023-06-10T11:15:27.245Z,113035.94
2023-06-10T11:18:26.042Z,113035.94
2023-06-10T11:21:05.741Z,113035.94
2023-06-10T11:23:35.833Z,113035.94
2023-06-10T11:26:15.441Z,113035.94
2023-06-10T11:29:03.555Z,113035.94
2023-06-10T11:31:53.087Z,113035.94
2023-06-10T11:34:24.538Z,113035.94
2023-06-10T11:36:52.663Z,113035.94
2023-06-10T11:39:21.489Z,113035.94
2023-06-10T11:41:52.741Z,113035.94
2023-06-10T11:44:20.482Z,113035.94
2023-06-10T11:46:51.019Z,113035.94
2023-06-10T11:49:18.755Z,113035.94
2023-06-10T11:51:51.008Z,113035.94
2023-06-10T11:54:18.808Z,113035.94
2023-06-10T11:56:49.886Z,113035.94
2023-06-10T11:59:17.176Z,113035.94
2023-06-10T12:01:47.539Z,113035.94
2023-06-10T12:04:19.619Z,113035.94
2023-06-10T12:06:51.603Z,113035.94
2023-06-10T12:09:27.351Z,113035.94
2023-06-10T12:12:07.869Z,113035.94
2023-06-10T12:15:00.252Z,113035.94
2023-06-10T12:17:35.106Z,113035.94
2023-06-10T12:20:12.983Z,113035.94
2023-06-10T12:22:46.857Z,113035.94
2023-06-10T12:25:16.656Z,113035.94
2023-06-10T12:28:05.007Z,113035.94
2023-06-10T12:30:33.265Z,113035.94
2023-06-10T12:33:04.010Z,113035.94
2023-06-10T12:35:34.062Z,113035.94
2023-06-10T12:38:07.958Z,113035.94
2023-06-10T12:40:39.043Z,113035.94
2023-06-10T12:43:06.621Z,113035.94
2023-06-10T12:45:38.066Z,113035.94
2023-06-10T12:48:18.346Z,113035.94
2023-06-10T12:50:48.015Z,113035.94
2023-06-10T12:53:15.845Z,113035.94
2023-06-10T12:55:46.188Z,113035.94
2023-06-10T12:58:14.319Z,113035.94
2023-06-10T13:00:45.433Z,113035.94
2023-06-10T13:03:12.953Z,113035.94
2023-06-10T13:05:40.400Z,113035.94
2023-06-10T13:08:11.039Z,113035.94
2023-06-10T13:10:39.528Z,113035.94
2023-06-10T13:13:10.969Z,113035.94
2023-06-10T13:15:43.307Z,113035.94
2023-06-10T13:18:14.078Z,113035.94
2023-06-10T13:20:41.497Z,113035.94
2023-06-10T13:23:08.680Z,113035.94
2023-06-10T13:25:36.038Z,113035.94
2023-06-10T13:28:03.739Z,113035.94
2023-06-10T13:30:33.294Z,113035.94
2023-06-10T13:33:01.696Z,113035.94
2023-06-10T13:35:29.057Z,113035.94
2023-06-10T13:37:56.319Z,113035.94
2023-06-10T13:40:23.509Z,113035.94
2023-06-10T13:42:52.015Z,113035.94
2023-06-10T13:45:20.725Z,113035.94
2023-06-10T13:47:47.936Z,113035.94
2023-06-10T13:50:20.418Z,113035.94
2023-06-10T13:52:47.789Z,113035.94
2023-06-10T13:55:15.045Z,113035.94
2023-06-10T13:57:42.658Z,113035.94
2023-06-10T14:00:11.450Z,113035.94
2023-06-10T14:02:39.995Z,113035.94
2023-06-10T14:05:11.012Z,113035.94
2023-06-10T14:07:38.626Z,113035.94
2023-06-10T14:10:06.557Z,113035.94
2023-06-10T14:12:33.717Z,113035.94
2023-06-10T14:15:01.176Z,113035.94
2023-06-10T14:17:31.033Z,113035.94
2023-06-10T14:20:00.760Z,113035.94
2023-06-10T14:22:30.102Z,113035.94
2023-06-10T14:24:57.242Z,113035.94
2023-06-10T14:27:43.192Z,113035.94
2023-06-10T14:30:34.691Z,113035.94
2023-06-10T14:33:08.903Z,113035.94
2023-06-10T14:35:36.364Z,113035.94
2023-06-10T14:38:05.885Z,113035.94
2023-06-10T14:40:34.976Z,113035.94
2023-06-10T14:43:05.096Z,113035.94
2023-06-10T14:45:36.469Z,113035.94
2023-06-10T14:48:05.355Z,113035.94
2023-06-10T14:50:36.008Z,113035.94
2023-06-10T14:53:04.006Z,113035.94
2023-06-10T14:55:31.222Z,113035.94
2023-06-10T14:57:59.130Z,113035.94
2023-06-10T15:00:27.140Z,113035.94
2023-06-10T15:02:56.817Z,113035.94
2023-06-10T15:05:29.317Z,113035.94
2023-06-10T15:08:01.696Z,113035.94
2023-06-10T15:10:29.096Z,113035.94
2023-06-10T15:12:59.484Z,113035.94
2023-06-10T15:15:26.936Z,113035.94
2023-06-10T15:17:55.046Z,113035.94
2023-06-10T15:20:22.451Z,113035.94
2023-06-10T15:22:49.785Z,113035.94
2023-06-10T15:25:29.879Z,113035.94
2023-06-10T15:27:58.597Z,113035.94
2023-06-10T15:30:26.072Z,113035.94
2023-06-10T15:32:53.761Z,113035.94
2023-06-10T15:35:22.845Z,113035.94
2023-06-10T15:37:52.420Z,113035.94
2023-06-10T15:40:21.131Z,113035.94
2023-06-10T15:42:48.759Z,113035.94
2023-06-10T15:45:16.006Z,113035.94
2023-06-10T15:47:43.693Z,113035.94
2023-06-10T15:50:13.632Z,113035.94
2023-06-10T15:52:43.584Z,113035.94
2023-06-10T15:55:13.377Z,113035.94
2023-06-10T15:57:40.893Z,113035.94
2023-06-10T16:00:09.052Z,113035.94
2023-06-10T16:02:37.516Z,113035.94
2023-06-10T16:05:06.126Z,113035.94
2023-06-10T16:07:36.096Z,113035.94
2023-06-10T16:10:03.505Z,113035.94
2023-06-10T16:12:31.408Z,113035.94
2023-06-10T16:14:58.745Z,113035.94
2023-06-10T16:17:28.837Z,113035.94
2023-06-10T16:19:56.355Z,113035.94
2023-06-10T16:22:23.612Z,113035.94
2023-06-10T16:24:51.021Z,113035.94
2023-06-10T16:27:19.096Z,113035.94
2023-06-10T16:29:46.334Z,113035.94
2023-06-10T16:32:16.915Z,113035.94
2023-06-10T16:34:44.327Z,113035.94
2023-06-10T16:37:14.253Z,113035.94
2023-06-10T16:39:43.694Z,113035.94
2023-06-10T16:42:11.591Z,113035.94
2023-06-10T16:44:39.015Z,113035.94
2023-06-10T16:47:06.634Z,113035.94
2023-06-10T16:49:35.258Z,113035.94
2023-06-10T16:52:02.593Z,113035.94
2023-06-10T16:54:30.060Z,113035.94
2023-06-10T16:56:58.561Z,113035.94
2023-06-10T16:59:30.595Z,113035.94
2023-06-10T17:01:58.765Z,113035.94
2023-06-10T17:04:30.123Z,113035.94
2023-06-10T17:06:57.387Z,113035.94
2023-06-10T17:09:27.225Z,113035.94
2023-06-10T17:11:54.747Z,113035.94
2023-06-10T17:14:24.669Z,113035.94
2023-06-10T17:16:52.073Z,113035.94
2023-06-10T17:19:22.051Z,113035.94
2023-06-10T17:21:52.030Z,113035.94
2023-06-10T17:24:19.393Z,113035.94
2023-06-10T17:26:47.892Z,113035.94
2023-06-10T17:29:15.584Z,113035.94
2023-06-10T17:32:10.665Z,113035.94
2023-06-10T17:35:08.418Z,113035.94
2023-06-10T17:37:47.261Z,113035.94
2023-06-10T17:40:14.524Z,113035.94
2023-06-10T17:42:41.866Z,113035.94
2023-06-10T17:45:10.028Z,113035.94
2023-06-10T17:47:37.490Z,113035.94
2023-06-10T17:50:05.542Z,113035.94
2023-06-10T17:52:32.753Z,113035.94
2023-06-10T17:55:03.609Z,113035.94
2023-06-10T17:57:32.523Z,113035.94
2023-06-10T17:59:59.941Z,113035.94
2023-06-10T18:02:27.274Z,113035.94
2023-06-10T18:04:56.063Z,113035.94
2023-06-10T18:07:23.246Z,113035.94
2023-06-10T18:09:50.611Z,113035.94
2023-06-10T18:12:23.828Z,113035.94
2023-06-10T18:14:51.177Z,113035.94
2023-06-10T18:17:18.454Z,113035.94
2023-06-10T18:19:45.720Z,113035.94
2023-06-10T18:22:13.114Z,113035.94
2023-06-10T18:24:42.708Z,113035.94
2023-06-10T18:27:16.745Z,113035.94
2023-06-10T18:29:44.437Z,113035.94
2023-06-10T18:32:14.166Z,113035.94
2023-06-10T18:34:41.500Z,113035.94
2023-06-10T18:37:09.102Z,113035.94
2023-06-10T18:39:36.492Z,113035.94
2023-06-10T18:42:03.922Z,113035.94
2023-06-10T18:44:33.765Z,113035.94
2023-06-10T18:47:03.510Z,113035.94
2023-06-10T18:49:30.873Z,113035.94
2023-06-10T18:51:58.255Z,113035.94
2023-06-10T18:54:40.237Z,113035.94
2023-06-10T18:57:24.114Z,113035.94
2023-06-10T19:00:13.517Z,113035.94
2023-06-10T19:02:45.324Z,113035.94
2023-06-10T19:05:13.991Z,113035.94
2023-06-10T19:07:41.282Z,113035.94
2023-06-10T19:10:09.017Z,113035.94
2023-06-10T19:12:36.245Z,113035.94
2023-06-10T19:15:04.511Z,113035.94
2023-06-10T19:17:32.123Z,113035.94
2023-06-10T19:19:59.572Z,113035.94
2023-06-10T19:22:26.926Z,113035.94
2023-06-10T19:25:25.003Z,113035.94
2023-06-10T19:27:52.123Z,113035.94
2023-06-10T19:30:19.556Z,113035.94
2023-06-10T19:32:46.871Z,113035.94
2023-06-10T19:35:16.511Z,113035.94
2023-06-10T19:37:43.623Z,113035.94
2023-06-10T19:40:11.529Z,113035.94
2023-06-10T19:42:41.066Z,113035.94
2023-06-10T19:45:11.862Z,113035.94
2023-06-10T19:47:41.626Z,113035.94
2023-06-10T19:50:09.351Z,113035.94
2023-06-10T19:52:36.699Z,113035.94
2023-06-10T19:55:06.959Z,113035.94
2023-06-10T19:57:34.327Z,113035.94
2023-06-10T20:00:06.419Z,113035.94
2023-06-10T20:02:40.125Z,113035.94
2023-06-10T20:05:08.068Z,113035.94
2023-06-10T20:07:35.517Z,113035.94
2023-06-10T20:10:02.938Z,113035.94
2023-06-10T20:12:32.509Z,113035.94
2023-06-10T20:14:59.705Z,113035.94
2023-06-10T20:17:27.731Z,113035.94
2023-06-10T20:19:57.970Z,113035.94
2023-06-10T20:22:27.718Z,113035.94
2023-06-10T20:24:57.849Z,113035.94
2023-06-10T20:27:25.104Z,113035.94
2023-06-10T20:29:54.265Z,113035.94
2023-06-10T20:32:22.939Z,113035.94
2023-06-10T20:34:50.529Z,113035.94
2023-06-10T20:37:17.650Z,113035.94
2023-06-10T20:39:45.124Z,113035.94
2023-06-10T20:42:14.212Z,113035.94
2023-06-10T20:44:43.662Z,113035.94
2023-06-10T20:47:11.266Z,113035.94
2023-06-10T20:49:38.477Z,113035.94
2023-06-10T20:52:06.089Z,113035.94
2023-06-10T20:54:33.322Z,113035.94
2023-06-10T20:57:00.659Z,113035.94
2023-06-10T20:59:29.952Z,113035.94
2023-06-10T21:01:57.417Z,113035.94
2023-06-10T21:04:26.796Z,113035.94
2023-06-10T21:06:56.443Z,113035.94
2023-06-10T21:09:23.842Z,113035.94
2023-06-10T21:11:53.306Z,113035.94
2023-06-10T21:14:20.540Z,113035.94
2023-06-10T21:16:52.440Z,113035.94
2023-06-10T21:19:19.602Z,113035.94
2023-06-10T21:21:46.973Z,113035.94
2023-06-10T21:24:19.460Z,113035.94
2023-06-10T21:26:46.858Z,113035.94
2023-06-10T21:29:14.433Z,113035.94
2023-06-10T21:31:41.877Z,113035.94
2023-06-10T21:34:09.142Z,113035.94
2023-06-10T21:36:38.989Z,113035.94
2023-06-10T21:39:06.983Z,113035.94
2023-06-10T21:41:34.144Z,113035.94
2023-06-10T21:44:03.895Z,113035.94
2023-06-10T21:46:34.413Z,113035.94
2023-06-10T21:49:04.010Z,113035.94
2023-06-10T21:51:31.445Z,113035.94
2023-06-10T21:54:01.026Z,113035.94
2023-06-10T21:56:33.094Z,113035.94
2023-06-10T21:59:02.798Z,113035.94
2023-06-10T22:01:36.726Z,113035.94
2023-06-10T22:04:04.384Z,113035.94
2023-06-10T22:06:34.746Z,113035.94
2023-06-10T22:09:02.310Z,113035.94
2023-06-10T22:11:29.564Z,113035.94
2023-06-10T22:13:57.506Z,113035.94
2023-06-10T22:16:26.973Z,113035.94
2023-06-10T22:18:56.519Z,113035.94
2023-06-10T22:21:30.006Z,113035.94
2023-06-10T22:23:57.514Z,113035.94
2023-06-10T22:26:33.969Z,113035.94
2023-06-10T22:29:13.475Z,113035.94
2023-06-10T22:31:40.865Z,113035.94
2023-06-10T22:34:10.825Z,113035.94
2023-06-10T22:36:41.131Z,113035.94
2023-06-10T22:39:12.942Z,113035.94
2023-06-10T22:41:43.316Z,113035.94
2023-06-10T22:44:11.056Z,113035.94
2023-06-10T22:46:42.883Z,113035.94
2023-06-10T22:49:12.689Z,113035.94
2023-06-10T22:51:41.815Z,113035.94
2023-06-10T22:54:09.098Z,113035.94
2023-06-10T22:56:36.475Z,113035.94
2023-06-10T22:59:03.843Z,113035.94
2023-06-10T23:01:33.829Z,113035.94
2023-06-10T23:04:01.313Z,113035.94
2023-06-10T23:06:28.709Z,113035.94
2023-06-10T23:08:58.202Z,113035.94
2023-06-10T23:11:28.514Z,113035.94
2023-06-10T23:13:56.018Z,113035.94
2023-06-10T23:16:23.232Z,113035.94
2023-06-10T23:18:51.049Z,113035.94
2023-06-10T23:21:21.685Z,113035.94
2023-06-10T23:23:52.615Z,113035.94
2023-06-10T23:26:23.090Z,113035.94
2023-06-10T23:28:50.384Z,113035.94
2023-06-10T23:31:20.574Z,113035.94
2023-06-10T23:33:49.980Z,113035.94
2023-06-10T23:36:20.415Z,113035.94
2023-06-10T23:38:47.871Z,113035.94
2023-06-10T23:41:15.354Z,113035.94
2023-06-10T23:43:44.907Z,113035.94
2023-06-10T23:46:12.318Z,113035.94
2023-06-10T23:48:42.139Z,113035.94
2023-06-10T23:51:09.376Z,113035.94
2023-06-10T23:53:36.978Z,113035.94
2023-06-10T23:56:04.401Z,113035.94
2023-06-10T23:58:31.640Z,113035.94
